createdAt,value
2022-10-06T04:25:37.902Z,93.10
2022-10-06T04:28:04.826Z,92.90
2022-10-06T04:30:31.777Z,92.80
2022-10-06T04:32:58.571Z,92.80
2022-10-06T04:35:25.596Z,92.60
2022-10-06T04:37:52.957Z,92.40
2022-10-06T04:40:19.716Z,92.30
2022-10-06T04:42:46.666Z,92.30
2022-10-06T04:45:13.467Z,92.10
2022-10-06T04:47:40.347Z,91.90
2022-10-06T04:50:07.320Z,91.90
2022-10-06T04:52:34.112Z,91.70
2022-10-06T04:55:00.861Z,91.70
2022-10-06T04:57:28.135Z,91.60
2022-10-06T05:00:15.055Z,91.60
2022-10-06T05:02:42.145Z,91.60
2022-10-06T05:05:09.154Z,91.70
2022-10-06T05:07:36.009Z,91.70
2022-10-06T05:10:02.802Z,91.70
2022-10-06T05:12:31.113Z,91.70
2022-10-06T05:14:58.213Z,91.60
2022-10-06T05:17:25.013Z,91.60
2022-10-06T05:19:51.821Z,91.20
2022-10-06T05:22:18.575Z,91.10
2022-10-06T05:24:45.406Z,91.10
2022-10-06T05:27:12.851Z,91.00
2022-10-06T05:29:39.605Z,91.20
2022-10-06T05:32:06.432Z,91.10
2022-10-06T05:34:33.266Z,91.20
2022-10-06T05:37:00.198Z,91.10
2022-10-06T05:39:26.988Z,91.20
2022-10-06T05:41:53.749Z,91.10
2022-10-06T05:44:20.489Z,90.70
2022-10-06T05:46:47.402Z,90.60
2022-10-06T05:49:14.187Z,90.60
2022-10-06T05:51:41.138Z,90.60
2022-10-06T05:54:08.093Z,90.40
2022-10-06T05:56:37.319Z,90.40
2022-10-06T05:59:05.119Z,90.30
2022-10-06T06:01:39.904Z,90.20
2022-10-06T06:04:08.757Z,90.20
2022-10-06T06:06:38.320Z,90.20
2022-10-06T06:09:11.312Z,90.20
2022-10-06T06:11:43.549Z,90.20
2022-10-06T06:14:12.524Z,90.10
2022-10-06T06:16:40.915Z,90.20
2022-10-06T06:19:09.439Z,90.20
2022-10-06T06:21:36.956Z,90.10
2022-10-06T06:24:04.759Z,90.10
2022-10-06T06:26:34.506Z,90.00
2022-10-06T06:29:05.317Z,90.00
2022-10-06T06:31:34.930Z,90.00
2022-10-06T06:34:04.672Z,89.90
2022-10-06T06:36:41.055Z,89.80
2022-10-06T06:39:11.383Z,89.40
2022-10-06T06:41:43.148Z,89.30
2022-10-06T06:44:11.550Z,89.50
2022-10-06T06:46:39.576Z,89.60
2022-10-06T06:49:07.193Z,90.00
2022-10-06T06:51:36.844Z,90.00
2022-10-06T06:54:04.862Z,90.10
2022-10-06T06:56:34.950Z,90.10
2022-10-06T06:59:12.625Z,90.20
2022-10-06T07:01:45.716Z,90.30
2022-10-06T07:04:14.665Z,90.30
2022-10-06T07:06:42.577Z,90.20
2022-10-06T07:09:10.494Z,90.20
2022-10-06T07:11:39.631Z,90.20
2022-10-06T07:14:09.029Z,90.10
2022-10-06T07:16:54.557Z,90.00
2022-10-06T07:19:40.558Z,89.70
2022-10-06T07:22:32.685Z,89.60
2022-10-06T07:25:08.125Z,89.50
2022-10-06T07:27:36.420Z,89.20
2022-10-06T07:30:06.375Z,89.00
2022-10-06T07:32:33.274Z,89.00
2022-10-06T07:35:00.778Z,88.70
2022-10-06T07:37:28.960Z,88.60
2022-10-06T07:39:56.003Z,88.40
2022-10-06T07:42:22.920Z,88.50
2022-10-06T07:45:08.154Z,87.90
2022-10-06T07:47:38.294Z,87.70
2022-10-06T07:50:09.079Z,87.80
2022-10-06T07:52:39.379Z,87.90
2022-10-06T07:55:06.986Z,87.60
2022-10-06T07:57:35.271Z,87.40
2022-10-06T08:00:05.518Z,87.00
2022-10-06T08:02:35.611Z,86.60
2022-10-06T08:05:04.091Z,86.40
2022-10-06T08:07:30.966Z,86.50
2022-10-06T08:09:57.696Z,86.60
2022-10-06T08:12:33.299Z,86.50
2022-10-06T08:15:07.637Z,86.10
2022-10-06T08:17:38.310Z,85.90
2022-10-06T08:20:12.020Z,85.90
2022-10-06T08:22:40.133Z,85.40
2022-10-06T08:25:11.052Z,85.30
2022-10-06T08:27:38.541Z,85.20
2022-10-06T08:30:07.321Z,85.40
2022-10-06T08:32:34.652Z,84.70
2022-10-06T08:35:01.841Z,84.30
2022-10-06T08:37:28.610Z,84.30
2022-10-06T08:39:56.147Z,84.70
2022-10-06T08:42:42.920Z,85.10
2022-10-06T08:45:20.614Z,84.40
2022-10-06T08:48:26.932Z,84.20
2022-10-06T08:50:58.356Z,84.20
2022-10-06T08:53:38.209Z,83.90
2022-10-06T08:56:19.645Z,83.80
2022-10-06T08:58:52.648Z,83.30
2022-10-06T09:01:29.520Z,83.40
2022-10-06T09:04:01.901Z,83.30
2022-10-06T09:06:52.994Z,83.40
2022-10-06T09:09:51.825Z,83.10
2022-10-06T09:12:32.436Z,82.60
2022-10-06T09:15:30.050Z,82.40
2022-10-06T09:18:07.287Z,82.70
2022-10-06T09:20:51.136Z,82.70
2022-10-06T09:23:38.611Z,81.60
2022-10-06T09:26:10.382Z,81.60
2022-10-06T09:28:37.573Z,80.40
2022-10-06T09:31:21.085Z,79.80
2022-10-06T09:33:51.457Z,80.80
2022-10-06T09:36:18.380Z,80.30
2022-10-06T09:38:53.991Z,79.90
2022-10-06T09:41:34.054Z,80.70
2022-10-06T09:44:07.527Z,79.20
2022-10-06T09:46:41.648Z,79.10
2022-10-06T09:49:17.798Z,79.00
2022-10-06T09:52:02.942Z,79.40
2022-10-06T09:54:34.548Z,79.90
2022-10-06T09:57:09.726Z,79.00
2022-10-06T09:59:42.303Z,79.00
2022-10-06T10:02:41.381Z,78.40
2022-10-06T10:05:20.264Z,78.70
2022-10-06T10:08:00.651Z,77.90
2022-10-06T10:10:27.426Z,78.90
2022-10-06T10:12:57.154Z,79.00
2022-10-06T10:15:26.721Z,78.90
2022-10-06T10:17:57.000Z,78.90
2022-10-06T10:20:39.307Z,76.90
2022-10-06T10:23:27.260Z,77.40
2022-10-06T10:25:58.565Z,76.60
2022-10-06T10:28:46.945Z,77.00
2022-10-06T10:31:34.896Z,77.70
2022-10-06T10:34:24.690Z,76.30
2022-10-06T10:37:14.097Z,76.50
2022-10-06T10:40:06.722Z,76.30
2022-10-06T10:43:07.048Z,75.20
2022-10-06T10:45:36.087Z,75.40
2022-10-06T10:48:23.172Z,74.10
2022-10-06T10:50:58.978Z,74.20
2022-10-06T10:53:42.611Z,73.70
2022-10-06T10:56:12.299Z,73.00
2022-10-06T10:58:41.758Z,71.90
2022-10-06T11:01:25.617Z,75.00
2022-10-06T11:03:59.407Z,73.50
2022-10-06T11:06:35.080Z,74.00
2022-10-06T11:09:32.150Z,74.60
2022-10-06T11:12:27.957Z,75.00
2022-10-06T11:15:05.145Z,74.30
2022-10-06T11:17:46.651Z,72.60
2022-10-06T11:20:33.072Z,72.70
2022-10-06T11:23:28.686Z,71.10
2022-10-06T11:26:19.189Z,71.00
2022-10-06T11:29:04.786Z,71.30
2022-10-06T11:31:42.675Z,72.10
2022-10-06T11:34:10.728Z,71.70
2022-10-06T11:36:56.215Z,71.10
2022-10-06T11:39:23.017Z,71.50
2022-10-06T11:41:58.449Z,72.40
2022-10-06T11:44:40.199Z,73.30
2022-10-06T11:47:11.488Z,70.70
2022-10-06T11:49:56.132Z,71.80
2022-10-06T11:52:22.836Z,69.00
2022-10-06T11:54:53.075Z,68.90
2022-10-06T11:57:25.128Z,68.80
2022-10-06T12:00:14.909Z,68.20
2022-10-06T12:02:43.208Z,67.60
2022-10-06T12:05:28.451Z,67.40
2022-10-06T12:07:55.579Z,67.50
2022-10-06T12:10:28.396Z,69.20
2022-10-06T12:14:12.384Z,68.70
2022-10-06T12:19:41.511Z,68.30
2022-10-06T12:22:33.855Z,69.10
2022-10-06T12:25:27.874Z,68.50
2022-10-06T12:28:06.060Z,68.70
2022-10-06T12:30:47.624Z,68.60
2022-10-06T12:33:19.526Z,69.00
2022-10-06T12:35:47.548Z,69.50
2022-10-06T12:38:41.463Z,69.00
2022-10-06T12:41:14.580Z,69.10
2022-10-06T12:43:53.860Z,67.00
2022-10-06T12:46:44.937Z,67.10
2022-10-06T12:49:45.630Z,67.60
2022-10-06T12:52:47.298Z,68.50
2022-10-06T12:55:39.385Z,67.90
2022-10-06T12:58:08.656Z,67.80
2022-10-06T13:00:40.361Z,67.80
2022-10-06T13:03:15.294Z,67.70
2022-10-06T13:05:48.784Z,67.30
2022-10-06T13:08:23.132Z,66.90
2022-10-06T13:10:49.902Z,66.60
2022-10-06T13:13:24.745Z,66.40
2022-10-06T13:15:55.867Z,66.60
2022-10-06T13:18:23.303Z,66.90
2022-10-06T13:20:50.010Z,66.90
2022-10-06T13:23:21.624Z,66.80
2022-10-06T13:25:49.353Z,66.30
2022-10-06T13:28:37.137Z,66.60
2022-10-06T13:31:24.674Z,66.40
2022-10-06T13:34:13.141Z,66.30
2022-10-06T13:36:42.721Z,66.40
2022-10-06T13:39:21.131Z,66.70
2022-10-06T13:42:00.475Z,66.90
2022-10-06T13:44:27.213Z,66.10
2022-10-06T13:46:58.681Z,66.10
2022-10-06T13:49:44.270Z,66.40
2022-10-06T13:52:33.170Z,65.70
2022-10-06T13:55:01.804Z,66.60
2022-10-06T13:57:46.855Z,65.50
2022-10-06T14:00:22.608Z,66.30
2022-10-06T14:03:10.398Z,66.10
2022-10-06T14:05:42.011Z,66.70
2022-10-06T14:08:11.751Z,65.80
2022-10-06T14:10:42.469Z,65.80
2022-10-06T14:13:20.131Z,66.60
2022-10-06T14:15:55.061Z,66.00
2022-10-06T14:18:26.769Z,66.40
2022-10-06T14:20:57.391Z,66.20
2022-10-06T14:23:39.071Z,67.00
2022-10-06T14:26:06.753Z,66.60
2022-10-06T14:28:33.890Z,66.30
2022-10-06T14:31:00.810Z,67.70
2022-10-06T14:33:27.613Z,66.10
2022-10-06T14:35:54.551Z,65.90
2022-10-06T14:38:21.668Z,66.00
2022-10-06T14:40:48.448Z,66.50
2022-10-06T14:43:15.220Z,66.50
2022-10-06T14:45:43.559Z,65.80
2022-10-06T14:48:11.529Z,66.50
2022-10-06T14:50:38.318Z,66.30
2022-10-06T14:53:05.571Z,66.60
2022-10-06T14:55:32.426Z,67.00
2022-10-06T14:57:59.545Z,66.40
2022-10-06T15:00:29.025Z,67.50
2022-10-06T15:02:56.549Z,66.70
2022-10-06T15:05:24.027Z,66.80
2022-10-06T15:08:09.693Z,66.90
2022-10-06T15:10:38.838Z,66.50
2022-10-06T15:13:08.487Z,66.20
2022-10-06T15:15:36.135Z,66.30
2022-10-06T15:18:03.717Z,66.50
2022-10-06T15:20:30.542Z,66.10
2022-10-06T15:22:57.358Z,66.00
2022-10-06T15:25:42.536Z,65.70
2022-10-06T15:28:31.526Z,65.60
2022-10-06T15:30:58.658Z,66.60
2022-10-06T15:33:28.209Z,66.20
2022-10-06T15:36:15.255Z,66.10
2022-10-06T15:38:42.417Z,66.20
2022-10-06T15:41:10.248Z,66.10
2022-10-06T15:43:56.536Z,66.90
2022-10-06T15:46:34.494Z,66.90
2022-10-06T15:49:10.139Z,67.30
2022-10-06T15:51:47.545Z,67.10
2022-10-06T15:54:19.394Z,67.40
2022-10-06T15:56:54.814Z,66.80
2022-10-06T15:59:24.155Z,67.50
2022-10-06T16:01:56.934Z,67.40
2022-10-06T16:04:32.003Z,67.50
2022-10-06T16:06:58.993Z,67.70
2022-10-06T16:09:28.804Z,67.30
2022-10-06T16:11:56.731Z,67.80
2022-10-06T16:14:24.372Z,68.20
2022-10-06T16:16:51.552Z,68.80
2022-10-06T16:19:19.355Z,68.80
2022-10-06T16:21:49.826Z,69.60
2022-10-06T16:24:17.640Z,70.10
2022-10-06T16:26:46.985Z,70.30
2022-10-06T16:29:15.283Z,70.70
2022-10-06T16:31:42.500Z,71.10
2022-10-06T16:34:09.896Z,71.70
2022-10-06T16:36:39.759Z,72.50
2022-10-06T16:39:08.306Z,73.20
2022-10-06T16:41:35.139Z,73.80
2022-10-06T16:44:01.921Z,74.50
2022-10-06T16:46:30.291Z,75.00
